createdAt,value
2019-05-21T00:02:24.971Z,11.85
2019-05-21T00:04:53.361Z,12.03
2019-05-21T00:07:21.668Z,12.37
2019-05-21T00:09:50.060Z,10.80
2019-05-21T00:12:18.543Z,12.07
2019-05-21T00:14:46.855Z,11.40
2019-05-21T00:17:15.321Z,13.78
2019-05-21T00:19:43.668Z,14.25
2019-05-21T00:22:12.037Z,12.75
2019-05-21T00:24:40.379Z,11.28
2019-05-21T00:27:08.902Z,11.83
2019-05-21T00:30:13.939Z,10.08
2019-05-21T00:33:18.559Z,9.95
2019-05-21T00:36:24.847Z,11.88
2019-05-21T00:39:29.578Z,11.80
2019-05-21T00:42:00.503Z,14.07
2019-05-21T00:44:33.948Z,12.23
2019-05-21T00:47:02.826Z,12.55
2019-05-21T00:49:31.131Z,9.60
2019-05-21T00:52:07.938Z,9.73
2019-05-21T00:54:29.645Z,10.98
2019-05-21T00:56:58.085Z,9.80
2019-05-21T00:59:26.478Z,11.18
2019-05-21T01:01:54.875Z,10.32
2019-05-21T01:04:23.338Z,10.98
2019-05-21T01:06:51.651Z,8.33
2019-05-21T01:09:20.019Z,9.25
2019-05-21T01:11:48.321Z,7.97
2019-05-21T01:14:16.688Z,9.75
2019-05-21T01:16:45.122Z,12.15
2019-05-21T01:19:13.618Z,10.38
2019-05-21T01:21:42.002Z,7.85
2019-05-21T01:24:10.337Z,9.48
2019-05-21T01:26:38.665Z,8.50
2019-05-21T01:29:07.027Z,8.00
2019-05-21T01:31:35.418Z,8.78
2019-05-21T01:34:05.249Z,7.67
2019-05-21T01:36:33.760Z,8.88
2019-05-21T01:39:02.227Z,10.88
2019-05-21T01:41:30.580Z,7.28
2019-05-21T01:43:59.073Z,8.25
2019-05-21T01:46:27.403Z,9.65
2019-05-21T01:48:55.709Z,7.60
2019-05-21T01:51:24.007Z,7.70
2019-05-21T01:53:52.303Z,7.95
2019-05-21T01:56:20.621Z,10.65
2019-05-21T01:58:48.991Z,8.25
2019-05-21T02:01:17.311Z,8.18
2019-05-21T02:03:47.973Z,10.63
2019-05-21T02:06:16.392Z,10.60
2019-05-21T02:08:44.689Z,7.72
2019-05-21T02:11:13.005Z,11.12
2019-05-21T02:13:41.324Z,8.88
2019-05-21T02:16:09.819Z,7.87
2019-05-21T02:18:38.247Z,6.40
2019-05-21T02:21:06.554Z,11.73
2019-05-21T02:23:35.271Z,9.25
2019-05-21T02:26:03.628Z,9.00
2019-05-21T02:28:32.003Z,7.45
2019-05-21T02:31:00.368Z,7.90
2019-05-21T02:33:28.681Z,9.58
2019-05-21T02:35:56.995Z,10.55
2019-05-21T02:38:25.479Z,8.50
2019-05-21T02:40:53.929Z,7.50
2019-05-21T02:43:22.307Z,7.83
2019-05-21T02:45:50.604Z,8.85
2019-05-21T02:48:19.185Z,9.15
2019-05-21T02:50:47.468Z,7.50
2019-05-21T02:53:15.947Z,9.00
2019-05-21T02:55:44.258Z,7.62
2019-05-21T02:58:12.651Z,7.95
2019-05-21T03:00:42.641Z,8.38
2019-05-21T03:03:12.595Z,7.15
2019-05-21T03:05:41.058Z,7.85
2019-05-21T03:08:09.536Z,8.70
2019-05-21T03:10:37.827Z,8.20
2019-05-21T03:13:06.134Z,9.68
2019-05-21T03:15:34.492Z,7.42
2019-05-21T03:18:02.899Z,8.50
2019-05-21T03:20:31.453Z,7.67
2019-05-21T03:22:59.962Z,9.43
2019-05-21T03:25:28.285Z,6.40
2019-05-21T03:27:56.863Z,6.65
2019-05-21T03:30:25.172Z,7.05
2019-05-21T03:32:53.670Z,7.75
2019-05-21T03:35:21.952Z,9.48
2019-05-21T03:37:50.405Z,6.87
2019-05-21T03:40:18.753Z,6.95
2019-05-21T03:42:47.114Z,5.87
2019-05-21T03:45:15.791Z,6.12
2019-05-21T03:47:44.089Z,6.10
2019-05-21T03:50:12.478Z,5.97
2019-05-21T03:52:40.900Z,7.45
2019-05-21T03:55:09.474Z,7.60
2019-05-21T03:57:37.798Z,7.08
2019-05-21T04:00:07.707Z,5.75
2019-05-21T04:02:36.058Z,6.85
2019-05-21T04:05:05.381Z,7.40
2019-05-21T04:07:33.681Z,5.80
2019-05-21T04:10:02.061Z,6.05
2019-05-21T04:12:30.383Z,6.40
2019-05-21T04:15:16.677Z,5.40
2019-05-21T04:17:46.613Z,6.60
2019-05-21T04:20:15.132Z,6.70
2019-05-21T04:22:45.099Z,6.08
2019-05-21T04:25:13.391Z,4.30
2019-05-21T04:27:41.686Z,7.70
2019-05-21T04:30:11.294Z,6.05
2019-05-21T04:32:39.923Z,5.58
2019-05-21T04:35:08.387Z,6.47
2019-05-21T04:37:36.739Z,5.30
2019-05-21T04:40:05.307Z,4.53
2019-05-21T04:42:33.627Z,5.12
2019-05-21T04:45:02.130Z,4.42
2019-05-21T04:47:30.465Z,5.05
2019-05-21T04:49:58.769Z,7.03
2019-05-21T04:52:27.086Z,5.05
2019-05-21T04:54:55.447Z,5.12
2019-05-21T04:57:23.769Z,5.42
2019-05-21T04:59:52.076Z,5.90
2019-05-21T05:02:20.415Z,4.42
2019-05-21T05:04:48.714Z,5.92
2019-05-21T05:07:27.608Z,4.55
2019-05-21T05:09:47.140Z,4.17
2019-05-21T05:12:15.470Z,5.70
2019-05-21T05:14:43.776Z,4.37
2019-05-21T05:17:12.266Z,15.70
2019-05-21T05:19:40.587Z,7.30
2019-05-21T05:22:08.922Z,5.72
2019-05-21T05:24:37.330Z,7.17
2019-05-21T05:27:05.779Z,5.50
2019-05-21T05:29:34.255Z,5.17
2019-05-21T05:32:02.585Z,5.10
2019-05-21T05:34:30.915Z,5.17
2019-05-21T05:36:59.196Z,5.00
2019-05-21T05:39:27.570Z,10.60
2019-05-21T05:41:55.930Z,8.98
2019-05-21T05:44:27.101Z,9.53
2019-05-21T05:46:55.411Z,8.43
2019-05-21T05:49:25.381Z,13.38
2019-05-21T05:51:53.685Z,16.73
2019-05-21T05:54:25.189Z,22.62
2019-05-21T05:56:53.478Z,16.95
2019-05-21T05:59:23.437Z,19.52
2019-05-21T06:01:51.748Z,21.80
2019-05-21T06:04:20.156Z,19.73
2019-05-21T06:06:48.540Z,20.48
2019-05-21T06:09:17.094Z,19.35
2019-05-21T06:11:45.393Z,22.25
2019-05-21T06:14:14.014Z,25.75
2019-05-21T06:16:42.374Z,25.15
2019-05-21T06:19:10.785Z,20.77
2019-05-21T06:21:39.075Z,15.00
2019-05-21T06:24:07.461Z,20.85
2019-05-21T06:26:36.846Z,17.75
2019-05-21T06:29:05.213Z,19.82
2019-05-21T06:31:33.583Z,16.70
2019-05-21T06:34:01.974Z,23.07
2019-05-21T06:36:30.438Z,11.95
2019-05-21T06:38:58.850Z,26.07
2019-05-21T06:41:27.157Z,17.60
2019-05-21T06:43:55.469Z,19.75
2019-05-21T06:46:23.797Z,13.43
2019-05-21T06:48:52.242Z,23.02
2019-05-21T06:51:20.562Z,9.35
2019-05-21T06:53:50.408Z,15.35
2019-05-21T06:56:18.734Z,9.58
2019-05-21T06:58:47.045Z,14.80
2019-05-21T07:01:15.351Z,13.93
2019-05-21T07:03:43.787Z,13.58
2019-05-21T07:06:12.286Z,16.20
2019-05-21T07:08:41.403Z,14.93
2019-05-21T07:11:10.123Z,12.47
2019-05-21T07:13:38.654Z,13.20
2019-05-21T07:16:06.953Z,9.35
2019-05-21T07:18:35.269Z,11.65
2019-05-21T07:21:03.735Z,15.95
2019-05-21T07:23:32.205Z,11.28
2019-05-21T07:26:00.595Z,9.35
2019-05-21T07:28:28.960Z,11.20
2019-05-21T07:30:57.260Z,13.30
2019-05-21T07:33:25.649Z,14.53
2019-05-21T07:35:54.042Z,12.00
2019-05-21T07:38:22.432Z,10.80
2019-05-21T07:40:50.866Z,9.90
2019-05-21T07:43:19.311Z,6.72
2019-05-21T07:45:47.698Z,9.45
2019-05-21T07:48:16.025Z,10.18
2019-05-21T07:50:44.355Z,13.65
2019-05-21T07:53:12.889Z,9.28
2019-05-21T07:55:41.182Z,8.90
2019-05-21T07:58:09.500Z,10.58
2019-05-21T08:00:37.792Z,9.23
2019-05-21T08:03:06.203Z,11.10
2019-05-21T08:05:34.566Z,9.78
2019-05-21T08:08:02.904Z,8.80
2019-05-21T08:10:31.212Z,10.18
2019-05-21T08:13:01.241Z,14.65
2019-05-21T08:15:29.616Z,13.80
2019-05-21T08:17:57.947Z,9.40
2019-05-21T08:20:27.951Z,8.10
2019-05-21T08:22:57.915Z,10.85
2019-05-21T08:25:26.509Z,11.53
2019-05-21T08:27:54.812Z,8.30
2019-05-21T08:30:23.177Z,10.65
2019-05-21T08:32:51.509Z,10.38
2019-05-21T08:35:19.876Z,10.95
2019-05-21T08:37:48.289Z,10.00
2019-05-21T08:40:16.805Z,14.10
2019-05-21T08:42:45.100Z,10.40
2019-05-21T08:45:13.767Z,8.15
2019-05-21T08:47:42.169Z,8.98
2019-05-21T08:50:10.840Z,13.48
2019-05-21T08:52:39.131Z,7.55
2019-05-21T08:55:07.977Z,8.53
2019-05-21T08:57:36.481Z,6.95
2019-05-21T09:00:14.891Z,7.08
2019-05-21T09:02:43.381Z,7.67
2019-05-21T09:05:11.933Z,7.87
2019-05-21T09:07:40.539Z,7.65
2019-05-21T09:10:09.709Z,6.95
2019-05-21T09:12:38.049Z,8.70
2019-05-21T09:15:07.294Z,9.03
2019-05-21T09:17:35.660Z,8.73
2019-05-21T09:20:06.867Z,7.35
2019-05-21T09:22:35.425Z,8.75
2019-05-21T09:25:05.176Z,8.73
2019-05-21T09:27:34.128Z,8.78
2019-05-21T09:30:02.513Z,6.35
2019-05-21T09:32:30.828Z,6.53
2019-05-21T09:34:59.136Z,8.10
2019-05-21T09:37:27.610Z,8.75
2019-05-21T09:39:56.010Z,8.48
2019-05-21T09:42:24.746Z,9.75
2019-05-21T09:44:53.110Z,8.75
2019-05-21T09:47:21.643Z,9.25
2019-05-21T09:49:50.096Z,5.28
2019-05-21T09:52:18.425Z,7.30
2019-05-21T09:54:46.763Z,7.50
2019-05-21T09:57:16.846Z,10.55
2019-05-21T09:59:52.768Z,8.60
2019-05-21T10:02:22.820Z,5.97
2019-05-21T10:04:51.133Z,7.95
2019-05-21T10:07:36.362Z,10.20
2019-05-21T10:09:49.631Z,4.83
2019-05-21T10:12:17.980Z,5.12
2019-05-21T10:14:46.567Z,5.53
2019-05-21T10:17:14.950Z,9.15
2019-05-21T10:19:43.266Z,6.83
2019-05-21T10:22:11.850Z,9.68
2019-05-21T10:24:40.123Z,8.40
2019-05-21T10:27:08.532Z,8.15
2019-05-21T10:29:36.970Z,7.65
2019-05-21T10:32:05.402Z,4.85
2019-05-21T10:34:33.704Z,6.62
2019-05-21T10:37:02.152Z,9.05
2019-05-21T10:39:30.699Z,10.43
2019-05-21T10:41:59.015Z,8.20
2019-05-21T10:44:27.380Z,6.40
2019-05-21T10:46:55.800Z,5.97
2019-05-21T10:49:25.657Z,13.05
2019-05-21T10:51:54.109Z,6.28
2019-05-21T10:54:22.595Z,10.08
2019-05-21T10:56:50.916Z,4.97
2019-05-21T10:59:19.324Z,6.05
2019-05-21T11:02:01.129Z,6.72
2019-05-21T11:04:36.777Z,6.08
2019-05-21T11:07:05.615Z,5.90
2019-05-21T11:09:34.213Z,7.65
2019-05-21T11:12:02.599Z,8.35
2019-05-21T11:14:31.093Z,5.83
2019-05-21T11:16:59.634Z,6.65
2019-05-21T11:19:28.048Z,8.45
2019-05-21T11:21:56.525Z,6.45
2019-05-21T11:24:24.945Z,5.35
2019-05-21T11:26:53.425Z,5.65
2019-05-21T11:29:21.814Z,3.70
2019-05-21T11:31:57.041Z,7.45
2019-05-21T11:34:20.384Z,4.50
2019-05-21T11:36:48.698Z,3.72
2019-05-21T11:39:17.089Z,14.53
2019-05-21T11:41:45.390Z,34.95
2019-05-21T11:44:13.892Z,58.02
2019-05-21T11:46:42.254Z,59.45
2019-05-21T11:49:10.761Z,89.70
2019-05-21T11:51:39.063Z,82.35
2019-05-21T11:54:07.383Z,99.17
2019-05-21T11:56:36.448Z,98.80
2019-05-21T11:59:05.214Z,112.97
2019-05-21T12:01:33.543Z,112.75
2019-05-21T12:04:02.061Z,114.50
2019-05-21T12:06:30.803Z,108.52
2019-05-21T12:08:59.121Z,133.82
2019-05-21T12:11:27.440Z,121.70
2019-05-21T12:13:55.887Z,132.35
2019-05-21T12:16:24.311Z,141.90
2019-05-21T12:18:52.681Z,143.68
2019-05-21T12:21:20.990Z,152.62
2019-05-21T12:23:49.321Z,135.50
2019-05-21T12:26:17.739Z,149.32
2019-05-21T12:28:46.161Z,145.92
2019-05-21T12:31:14.495Z,138.65
2019-05-21T12:33:42.900Z,145.20
2019-05-21T12:36:11.368Z,142.98
2019-05-21T12:38:39.685Z,161.77
2019-05-21T12:41:08.031Z,170.47
2019-05-21T12:43:36.520Z,150.22
2019-05-21T12:46:04.920Z,142.28
2019-05-21T12:48:33.314Z,138.10
2019-05-21T12:51:01.672Z,152.95
2019-05-21T12:53:30.081Z,146.77
2019-05-21T12:55:58.407Z,160.05
2019-05-21T12:58:26.955Z,146.75
2019-05-21T13:00:55.365Z,143.97
2019-05-21T13:03:23.696Z,135.20
2019-05-21T13:05:52.203Z,139.47
2019-05-21T13:08:20.686Z,133.97
2019-05-21T13:10:49.024Z,127.40
2019-05-21T13:13:17.773Z,133.95
2019-05-21T13:15:46.202Z,142.53
2019-05-21T13:18:14.507Z,130.22
2019-05-21T13:20:43.187Z,130.90
2019-05-21T13:23:11.765Z,129.53
2019-05-21T13:25:40.128Z,144.28
2019-05-21T13:28:08.463Z,132.90
2019-05-21T13:30:36.964Z,132.03
2019-05-21T13:33:05.571Z,142.80
2019-05-21T13:35:33.975Z,126.42
2019-05-21T13:38:02.331Z,128.02
2019-05-21T13:40:32.494Z,130.63
2019-05-21T13:43:00.889Z,130.87
2019-05-21T13:45:29.270Z,122.33
2019-05-21T13:47:57.618Z,124.97
2019-05-21T13:50:26.078Z,131.25
2019-05-21T13:52:54.385Z,124.55
2019-05-21T13:55:22.792Z,120.53
2019-05-21T13:57:51.292Z,119.35
2019-05-21T14:00:21.998Z,139.43
2019-05-21T14:02:50.402Z,116.05
2019-05-21T14:05:18.996Z,131.32
2019-05-21T14:07:47.464Z,110.97
2019-05-21T14:10:19.952Z,110.68
2019-05-21T14:12:46.144Z,115.85
2019-05-21T14:15:14.826Z,113.45
2019-05-21T14:17:46.262Z,100.90
2019-05-21T14:20:15.078Z,106.78
2019-05-21T14:22:43.665Z,119.20
2019-05-21T14:25:12.171Z,107.97
2019-05-21T14:27:45.025Z,112.70
2019-05-21T14:30:10.791Z,113.10
2019-05-21T14:32:39.274Z,94.77
2019-05-21T14:35:08.255Z,98.05
2019-05-21T14:37:36.565Z,96.15
2019-05-21T14:40:08.588Z,101.27
2019-05-21T14:42:37.043Z,110.50
2019-05-21T14:45:06.765Z,94.92
2019-05-21T14:47:35.166Z,100.78
2019-05-21T14:50:04.984Z,94.95
2019-05-21T14:55:09.223Z,103.05
2019-05-21T14:57:37.587Z,101.78
2019-05-21T15:00:08.652Z,106.90
2019-05-21T15:02:37.194Z,85.45
2019-05-21T15:05:06.255Z,109.90
2019-05-21T15:07:34.581Z,100.53
2019-05-21T15:10:03.246Z,95.20
2019-05-21T15:12:31.565Z,97.37
2019-05-21T15:15:03.171Z,94.20
2019-05-21T15:17:31.839Z,95.15
2019-05-21T15:20:01.982Z,93.42
2019-05-21T15:22:30.316Z,91.28
2019-05-21T15:24:58.655Z,96.95
2019-05-21T15:27:26.990Z,88.45
2019-05-21T15:29:57.168Z,82.90
2019-05-21T15:32:26.509Z,77.27
2019-05-21T15:34:55.700Z,86.02
2019-05-21T15:37:24.050Z,85.90
2019-05-21T15:39:52.410Z,79.70
2019-05-21T15:42:20.745Z,78.07
2019-05-21T15:44:49.053Z,82.33
2019-05-21T15:47:17.442Z,74.05
2019-05-21T15:49:45.852Z,74.17
2019-05-21T15:52:14.185Z,77.72
2019-05-21T15:54:42.576Z,75.92
2019-05-21T15:57:11.004Z,73.57
2019-05-21T15:59:39.372Z,73.80
2019-05-21T16:02:07.786Z,66.10
2019-05-21T16:04:36.274Z,71.00
2019-05-21T16:07:04.694Z,75.60
2019-05-21T16:09:33.012Z,76.92
2019-05-21T16:12:01.328Z,78.37
2019-05-21T16:14:29.638Z,69.67
2019-05-21T16:16:58.078Z,77.45
2019-05-21T16:19:26.415Z,62.43
2019-05-21T16:21:54.903Z,71.57
2019-05-21T16:24:23.418Z,70.83
2019-05-21T16:26:51.733Z,66.45
2019-05-21T16:29:20.233Z,69.67
2019-05-21T16:31:48.610Z,62.65
2019-05-21T16:34:16.967Z,76.55
2019-05-21T16:36:46.141Z,65.75
2019-05-21T16:39:16.313Z,63.08
2019-05-21T16:41:45.590Z,71.37
2019-05-21T16:44:14.093Z,67.65
2019-05-21T16:46:42.897Z,73.12
2019-05-21T16:49:11.556Z,64.42
2019-05-21T16:51:43.318Z,71.00
2019-05-21T16:54:10.104Z,65.35
2019-05-21T16:56:38.373Z,66.47
2019-05-21T16:59:06.894Z,62.80
2019-05-21T17:01:35.233Z,59.77
2019-05-21T17:04:03.542Z,64.72
2019-05-21T17:06:31.878Z,72.03
2019-05-21T17:09:00.269Z,59.60
2019-05-21T17:11:28.770Z,12.20
2019-05-21T17:13:57.088Z,4.15
2019-05-21T17:16:25.611Z,2.87
2019-05-21T17:18:54.229Z,2.05
2019-05-21T17:21:22.629Z,1.62
2019-05-21T17:23:51.007Z,2.20
2019-05-21T17:26:19.397Z,2.37
2019-05-21T17:28:47.783Z,5.28
2019-05-21T17:31:16.208Z,3.42
2019-05-21T17:33:44.564Z,3.50
2019-05-21T17:36:13.262Z,3.62
2019-05-21T17:38:41.567Z,3.52
2019-05-21T17:41:09.957Z,3.58
2019-05-21T17:43:38.370Z,4.67
2019-05-21T17:46:06.922Z,4.47
2019-05-21T17:48:35.404Z,3.85
2019-05-21T17:51:03.940Z,3.72
2019-05-21T17:53:32.268Z,6.62
2019-05-21T17:56:00.866Z,4.22
2019-05-21T17:58:29.221Z,4.72
2019-05-21T18:01:02.498Z,3.25
2019-05-21T18:03:31.482Z,4.58
2019-05-21T18:06:00.039Z,5.50
2019-05-21T18:08:28.675Z,3.10
2019-05-21T18:10:57.642Z,2.85
2019-05-21T18:13:26.670Z,3.08
2019-05-21T18:15:56.601Z,3.80
2019-05-21T18:18:25.255Z,5.03
2019-05-21T18:20:53.617Z,8.10
2019-05-21T18:23:22.109Z,3.45
2019-05-21T18:25:50.529Z,5.92
2019-05-21T18:28:18.867Z,9.08
2019-05-21T18:30:49.634Z,5.58
2019-05-21T18:33:17.396Z,5.65
2019-05-21T18:35:45.792Z,4.08
2019-05-21T18:38:14.200Z,7.87
2019-05-21T18:40:42.721Z,5.12
2019-05-21T18:43:11.193Z,4.40
2019-05-21T18:45:39.512Z,8.18
2019-05-21T18:48:08.024Z,3.45
2019-05-21T18:50:37.211Z,8.93
2019-05-21T18:53:05.733Z,4.42
2019-05-21T18:55:34.234Z,4.37
2019-05-21T18:58:02.679Z,6.00
2019-05-21T19:00:31.351Z,3.92
2019-05-21T19:02:59.805Z,5.20
2019-05-21T19:05:28.430Z,5.08
2019-05-21T19:07:57.070Z,4.97
2019-05-21T19:10:25.446Z,4.35
2019-05-21T19:12:53.848Z,6.42
2019-05-21T19:15:22.282Z,6.65
2019-05-21T19:17:50.823Z,5.15
2019-05-21T19:20:20.807Z,8.58
2019-05-21T19:22:49.133Z,5.42
2019-05-21T19:25:17.553Z,4.25
2019-05-21T19:27:45.919Z,5.03
2019-05-21T19:30:14.671Z,8.65
2019-05-21T19:32:43.036Z,3.40
2019-05-21T19:35:11.774Z,5.47
2019-05-21T19:37:40.150Z,5.80
2019-05-21T19:40:08.929Z,5.10
2019-05-21T19:42:52.301Z,2.37
2019-05-21T19:45:08.300Z,4.33
2019-05-21T19:47:36.782Z,3.17
2019-05-21T19:50:09.490Z,4.85
2019-05-21T19:52:37.921Z,3.20
2019-05-21T19:55:07.464Z,4.90
2019-05-21T19:57:35.940Z,4.72
2019-05-21T20:00:08.110Z,4.00
2019-05-21T20:02:36.548Z,3.47
2019-05-21T20:05:08.255Z,2.67
2019-05-21T20:07:36.696Z,7.83
2019-05-21T20:10:07.935Z,4.92
2019-05-21T20:12:36.379Z,4.70
2019-05-21T20:15:09.263Z,4.40
2019-05-21T20:17:38.609Z,3.30
2019-05-21T20:20:08.224Z,4.95
2019-05-21T20:22:36.796Z,3.67
2019-05-21T20:25:07.418Z,6.55
2019-05-21T20:27:36.955Z,6.20
2019-05-21T20:30:12.945Z,3.70
2019-05-21T20:32:40.163Z,4.97
2019-05-21T20:35:08.935Z,5.22
2019-05-21T20:37:39.147Z,3.60
2019-05-21T20:40:12.842Z,2.80
2019-05-21T20:42:41.519Z,4.62
2019-05-21T20:45:12.397Z,10.98
2019-05-21T20:47:40.860Z,6.50
2019-05-21T20:50:12.365Z,2.72
2019-05-21T20:52:40.840Z,8.68
2019-05-21T20:55:09.289Z,3.52
2019-05-21T20:57:38.030Z,15.43
2019-05-21T21:00:07.991Z,4.95
2019-05-21T21:02:37.436Z,5.15
2019-05-21T21:05:07.663Z,4.05
2019-05-21T21:07:37.865Z,5.10
2019-05-21T21:10:10.671Z,4.45
2019-05-21T21:12:40.702Z,3.27
2019-05-21T21:15:09.637Z,4.72
2019-05-21T21:17:38.302Z,3.87
2019-05-21T21:20:07.812Z,3.40
2019-05-21T21:22:36.264Z,2.80
2019-05-21T21:25:06.714Z,2.80
2019-05-21T21:27:36.369Z,4.95
2019-05-21T21:30:06.425Z,4.33
2019-05-21T21:32:35.513Z,2.75
2019-05-21T21:35:05.729Z,2.05
2019-05-21T21:37:34.404Z,4.12
2019-05-21T21:40:03.287Z,3.67
2019-05-21T21:42:31.885Z,2.85
2019-05-21T21:45:00.576Z,4.03
2019-05-21T21:47:29.313Z,3.05
2019-05-21T21:49:58.293Z,4.60
2019-05-21T21:52:26.803Z,8.58
2019-05-21T21:54:55.235Z,3.90
2019-05-21T21:57:23.526Z,3.40
2019-05-21T21:59:52.042Z,2.80
2019-05-21T22:02:29.493Z,2.92
2019-05-21T22:04:59.457Z,5.03
2019-05-21T22:07:28.458Z,3.08
2019-05-21T22:09:56.843Z,3.27
2019-05-21T22:12:27.068Z,3.35
2019-05-21T22:14:57.596Z,3.75
2019-05-21T22:17:26.232Z,2.77
2019-05-21T22:19:54.658Z,3.77
2019-05-21T22:22:23.574Z,2.70
2019-05-21T22:24:51.986Z,2.92
2019-05-21T22:27:20.896Z,4.03
2019-05-21T22:29:49.393Z,2.20
2019-05-21T22:32:17.771Z,2.87
2019-05-21T22:34:46.124Z,4.17
2019-05-21T22:37:16.261Z,2.65
2019-05-21T22:39:46.057Z,2.58
2019-05-21T22:42:15.999Z,2.77
2019-05-21T22:44:44.760Z,7.53
2019-05-21T22:47:14.206Z,4.95
2019-05-21T22:49:42.643Z,3.00
2019-05-21T22:52:11.062Z,4.37
2019-05-21T22:57:56.871Z,4.60
2019-05-21T23:00:25.456Z,2.95
2019-05-21T23:02:53.977Z,2.83
2019-05-21T23:05:23.356Z,4.28
2019-05-21T23:07:52.100Z,3.98
2019-05-21T23:10:20.797Z,4.08
2019-05-21T23:13:07.601Z,4.17
2019-05-21T23:18:10.898Z,2.80
2019-05-21T23:20:40.303Z,2.20
2019-05-21T23:23:09.913Z,3.65
2019-05-21T23:25:39.545Z,2.75
2019-05-21T23:28:08.831Z,1.95
2019-05-21T23:30:37.551Z,2.40
2019-05-21T23:33:07.078Z,2.35
2019-05-21T23:35:36.199Z,4.20
2019-05-21T23:38:06.316Z,3.95
2019-05-21T23:40:35.279Z,3.92
2019-05-21T23:43:04.159Z,3.17
2019-05-21T23:45:32.990Z,2.80
2019-05-21T23:48:01.511Z,6.30
2019-05-21T23:50:30.111Z,4.37
2019-05-21T23:52:59.421Z,2.90
2019-05-21T23:55:28.077Z,4.25
2019-05-21T23:57:56.619Z,2.85
